Time;durP1;ratioP1;P1;durP2;ratioP2;P2;SDS_P1;SDS_P2;PMS_P1;PMS_P2;Temp;Humidity;BMP_temperature;BMP_pressure;BME280_temperature;BME280_humidity;BME280_pressure;Samples;Min_cycle;Max_cycle;Signal;HPM_P1;HPM_P2
2023/05/13 00:04:59;;;;;;;;;;;13.70;44.80;;;;;;21079059;28;19924;-57
2023/05/13 00:15:00;;;;;;;;;;;13.70;45.10;;;;;;21093020;28;19955;-58
2023/05/13 00:25:00;;;;;;;;;;;13.60;45.40;;;;;;21091084;28;19924;-57
2023/05/13 00:35:01;;;;;;;;;;;13.50;45.80;;;;;;21091665;28;19931;-57
2023/05/13 00:45:01;;;;;;;;;;;13.30;46.20;;;;;;21090783;28;19926;-59
2023/05/13 00:55:03;;;;;;;;;;;13.30;46.30;;;;;;21090148;28;19931;-57
2023/05/13 01:05:39;;;;;;;;;;;13.40;46.40;;;;;;21088155;28;19931;-57
2023/05/13 01:15:46;;;;;;;;;;;13.20;46.70;;;;;;21011632;28;19924;-57
2023/05/13 01:25:49;;;;;;;;;;;13.20;46.90;;;;;;21086213;28;19928;-55
2023/05/13 01:35:50;;;;;;;;;;;13.20;47.10;;;;;;21085625;28;20018;-56
2023/05/13 01:45:51;;;;;;;;;;;13.00;47.40;;;;;;21085835;28;19924;-56
2023/05/13 01:55:52;;;;;;;;;;;13.00;47.40;;;;;;21085297;28;19930;-57
2023/05/13 02:05:52;;;;;;;;;;;13.00;47.10;;;;;;21084041;28;19931;-56
2023/05/13 02:15:53;;;;;;;;;;;12.80;47.60;;;;;;21083298;28;19975;-57
2023/05/13 02:25:54;;;;;;;;;;;12.90;47.50;;;;;;21082743;28;19970;-55
2023/05/13 02:35:54;;;;;;;;;;;12.80;47.70;;;;;;21081335;28;19931;-58
2023/05/13 02:45:55;;;;;;;;;;;12.80;47.60;;;;;;21080816;28;20022;-58
2023/05/13 02:55:56;;;;;;;;;;;12.70;47.70;;;;;;21080805;28;20399;-57
2023/05/13 03:05:56;;;;;;;;;;;12.70;47.90;;;;;;21080359;28;19975;-57
2023/05/13 03:15:57;;;;;;;;;;;12.70;48.00;;;;;;21078394;28;19947;-57
2023/05/13 03:25:57;;;;;;;;;;;12.60;48.00;;;;;;21079082;28;20027;-57
2023/05/13 03:35:58;;;;;;;;;;;12.50;47.50;;;;;;21078846;28;19935;-56
2023/05/13 03:45:59;;;;;;;;;;;12.40;48.20;;;;;;21089427;28;19924;-58
2023/05/13 03:55:59;;;;;;;;;;;12.30;48.00;;;;;;21094219;28;19947;-55
2023/05/13 04:06:00;;;;;;;;;;;12.40;48.00;;;;;;21093358;28;19924;-57
2023/05/13 04:16:01;;;;;;;;;;;12.40;47.70;;;;;;21091121;28;19924;-56
2023/05/13 04:26:02;;;;;;;;;;;12.40;47.50;;;;;;21091280;28;19924;-56
2023/05/13 04:36:03;;;;;;;;;;;12.20;47.60;;;;;;21091648;28;20030;-58
2023/05/13 04:46:03;;;;;;;;;;;12.20;48.00;;;;;;21090854;28;19973;-57
2023/05/13 04:56:04;;;;;;;;;;;12.10;48.30;;;;;;21089252;28;19924;-56
2023/05/13 05:06:05;;;;;;;;;;;11.90;49.00;;;;;;21087889;28;19936;-57
2023/05/13 05:16:06;;;;;;;;;;;11.70;49.50;;;;;;21071462;28;20417;-56
2023/05/13 05:26:06;;;;;;;;;;;11.40;50.10;;;;;;21087887;28;19924;-57
2023/05/13 05:36:07;;;;;;;;;;;11.40;50.40;;;;;;21087156;28;19924;-57
2023/05/13 05:46:08;;;;;;;;;;;11.30;50.70;;;;;;21085808;28;19997;-56
2023/05/13 05:56:09;;;;;;;;;;;11.30;51.00;;;;;;21083928;28;19944;-56
2023/05/13 06:06:09;;;;;;;;;;;11.30;50.50;;;;;;21082384;28;20019;-56
2023/05/13 06:16:10;;;;;;;;;;;11.40;50.30;;;;;;21083755;28;20274;-56
2023/05/13 06:26:10;;;;;;;;;;;11.50;49.80;;;;;;21082149;28;19924;-56
2023/05/13 06:36:12;;;;;;;;;;;11.60;49.60;;;;;;21081093;28;20030;-57
2023/05/13 06:46:12;;;;;;;;;;;12.10;48.50;;;;;;21079471;28;19924;-57
2023/05/13 06:56:13;;;;;;;;;;;12.90;46.30;;;;;;21079939;28;20086;-57
2023/05/13 07:06:13;;;;;;;;;;;13.70;44.20;;;;;;21079247;28;19924;-56
2023/05/13 07:16:14;;;;;;;;;;;14.50;42.20;;;;;;21080337;28;19924;-57
2023/05/13 07:26:15;;;;;;;;;;;15.10;40.60;;;;;;21080215;28;19924;-56
2023/05/13 07:36:16;;;;;;;;;;;15.50;40.00;;;;;;21079560;28;20387;-56
2023/05/13 07:46:16;;;;;;;;;;;16.00;39.20;;;;;;21076997;28;19982;-57
2023/05/13 07:56:17;;;;;;;;;;;16.20;38.80;;;;;;21077770;28;19931;-56
2023/05/13 08:06:18;;;;;;;;;;;16.50;37.80;;;;;;21077219;28;20369;-59
2023/05/13 08:16:19;;;;;;;;;;;16.20;38.30;;;;;;21075925;28;19928;-56
2023/05/13 08:26:19;;;;;;;;;;;16.40;37.80;;;;;;21079042;28;20403;-56
2023/05/13 08:36:24;;;;;;;;;;;16.70;37.60;;;;;;21090250;28;19924;-56
2023/05/13 08:46:31;;;;;;;;;;;16.70;37.50;;;;;;21089375;28;19924;-57
2023/05/13 08:56:31;;;;;;;;;;;16.70;37.90;;;;;;21089196;28;19924;-56
2023/05/13 09:06:32;;;;;;;;;;;16.90;37.70;;;;;;21089022;28;19924;-58
2023/05/13 09:16:35;;;;;;;;;;;17.00;37.40;;;;;;21087141;28;19974;-57
2023/05/13 09:26:38;;;;;;;;;;;17.10;37.20;;;;;;21085932;28;20471;-59
2023/05/13 09:36:40;;;;;;;;;;;17.40;38.20;;;;;;21086183;28;19997;-61
2023/05/13 09:46:43;;;;;;;;;;;18.50;35.60;;;;;;21085358;28;19976;-58
2023/05/13 09:56:44;;;;;;;;;;;18.10;35.70;;;;;;21084177;28;19924;-56
2023/05/13 10:06:45;;;;;;;;;;;17.90;36.20;;;;;;21083623;28;20067;-57
2023/05/13 10:16:46;;;;;;;;;;;17.90;36.10;;;;;;21082036;28;19924;-54
2023/05/13 10:26:48;;;;;;;;;;;18.10;35.60;;;;;;21081764;28;19930;-56
2023/05/13 10:36:55;;;;;;;;;;;18.00;36.10;;;;;;21081206;28;20434;-59
2023/05/13 10:46:56;;;;;;;;;;;18.10;36.10;;;;;;21080873;28;19924;-56
2023/05/13 10:57:00;;;;;;;;;;;18.70;39.20;;;;;;21079283;28;19924;-59
2023/05/13 11:07:12;;;;;;;;;;;18.30;35.40;;;;;;21078896;28;20395;-58
2023/05/13 11:17:17;;;;;;;;;;;18.40;35.30;;;;;;21076691;28;19930;-57
2023/05/13 11:27:19;;;;;;;;;;;18.50;34.70;;;;;;21077468;28;20392;-57
2023/05/13 11:37:20;;;;;;;;;;;18.50;34.80;;;;;;21078194;28;19985;-56
2023/05/13 11:47:24;;;;;;;;;;;18.70;35.00;;;;;;21078122;28;19924;-57
2023/05/13 11:57:26;;;;;;;;;;;18.90;34.20;;;;;;21075689;28;19924;-58
2023/05/13 12:07:27;;;;;;;;;;;18.90;34.00;;;;;;21087514;28;20041;-57
2023/05/13 12:17:29;;;;;;;;;;;19.10;33.80;;;;;;21090640;28;19928;-54
2023/05/13 12:27:30;;;;;;;;;;;19.20;33.50;;;;;;21090727;28;19928;-54
2023/05/13 12:37:30;;;;;;;;;;;19.50;35.00;;;;;;21090014;28;19977;-55
2023/05/13 12:47:46;;;;;;;;;;;19.70;32.70;;;;;;21089175;28;20281;-56
2023/05/13 12:57:55;;;;;;;;;;;19.60;32.70;;;;;;21090401;28;19924;-57
2023/05/13 13:07:55;;;;;;;;;;;19.90;32.50;;;;;;21088654;28;19924;-55
2023/05/13 13:17:56;;;;;;;;;;;19.90;32.20;;;;;;21087015;28;20007;-55
2023/05/13 13:27:56;;;;;;;;;;;19.90;31.90;;;;;;21087097;28;19925;-55
2023/05/13 13:37:57;;;;;;;;;;;20.10;31.50;;;;;;21086174;28;19924;-56
2023/05/13 13:47:58;;;;;;;;;;;20.30;30.40;;;;;;21084255;28;19931;-56
2023/05/13 13:57:59;;;;;;;;;;;20.30;30.20;;;;;;21084631;28;20450;-56
2023/05/13 14:07:59;;;;;;;;;;;20.40;30.30;;;;;;21082243;28;19928;-56
2023/05/13 14:18:00;;;;;;;;;;;20.70;28.60;;;;;;21082579;28;19995;-56
2023/05/13 14:28:00;;;;;;;;;;;20.60;29.00;;;;;;21081709;28;19938;-54
2023/05/13 14:38:01;;;;;;;;;;;20.60;29.30;;;;;;21080777;28;20009;-55
2023/05/13 14:48:02;;;;;;;;;;;20.40;28.80;;;;;;21080801;28;19931;-56
2023/05/13 14:58:03;;;;;;;;;;;20.40;28.70;;;;;;21080309;28;19928;-56
2023/05/13 15:08:03;;;;;;;;;;;20.50;29.10;;;;;;21080130;28;20007;-56
2023/05/13 15:18:04;;;;;;;;;;;20.60;28.80;;;;;;21080008;28;19924;-55
2023/05/13 15:28:05;;;;;;;;;;;20.90;28.50;;;;;;21080089;28;19928;-56
2023/05/13 15:38:05;;;;;;;;;;;20.80;28.20;;;;;;21085017;28;20072;-55
2023/05/13 15:48:06;;;;;;;;;;;21.10;28.20;;;;;;21095608;28;20309;-57
2023/05/13 15:58:07;;;;;;;;;;;21.10;28.10;;;;;;21094841;28;19924;-55
2023/05/13 16:08:07;;;;;;;;;;;20.90;27.60;;;;;;21094007;28;19924;-54
2023/05/13 16:18:08;;;;;;;;;;;21.10;27.90;;;;;;21092874;28;19932;-56
2023/05/13 16:28:09;;;;;;;;;;;21.20;27.10;;;;;;21091519;28;20296;-56
2023/05/13 16:38:10;;;;;;;;;;;21.10;27.30;;;;;;21091223;28;19928;-55
2023/05/13 16:48:12;;;;;;;;;;;21.20;27.50;;;;;;21090206;28;20442;-56
2023/05/13 16:58:12;;;;;;;;;;;21.20;27.60;;;;;;21090431;28;19935;-55
2023/05/13 17:08:13;;;;;;;;;;;21.20;27.50;;;;;;21089911;28;19924;-55
2023/05/13 17:18:14;;;;;;;;;;;21.30;27.30;;;;;;21071479;28;19931;-54
2023/05/13 17:28:14;;;;;;;;;;;21.30;26.70;;;;;;21086804;28;19924;-56
2023/05/13 17:38:15;;;;;;;;;;;21.20;27.20;;;;;;21087194;28;20394;-56
2023/05/13 17:48:15;;;;;;;;;;;21.20;27.40;;;;;;21086061;28;19970;-57
2023/05/13 17:58:16;;;;;;;;;;;21.00;28.00;;;;;;21084704;28;19924;-56
2023/05/13 18:08:17;;;;;;;;;;;21.10;27.60;;;;;;21084965;28;19986;-55
2023/05/13 18:18:17;;;;;;;;;;;20.80;27.70;;;;;;21083944;28;20007;-55
2023/05/13 18:28:18;;;;;;;;;;;20.90;27.40;;;;;;21082063;28;19924;-55
2023/05/13 18:38:18;;;;;;;;;;;20.90;27.80;;;;;;21081502;28;19931;-56
2023/05/13 18:48:19;;;;;;;;;;;20.70;28.80;;;;;;21080641;28;19985;-55
2023/05/13 18:58:20;;;;;;;;;;;20.60;27.80;;;;;;21080314;28;19935;-55
2023/05/13 19:08:21;;;;;;;;;;;20.40;28.10;;;;;;21080727;28;19924;-55
2023/05/13 19:18:21;;;;;;;;;;;20.20;28.20;;;;;;21078720;28;20024;-56
2023/05/13 19:28:22;;;;;;;;;;;20.00;28.20;;;;;;21078087;28;19924;-55
2023/05/13 19:38:23;;;;;;;;;;;20.10;27.80;;;;;;21077289;28;20339;-55
2023/05/13 19:48:23;;;;;;;;;;;19.70;28.20;;;;;;21077569;28;20011;-55
2023/05/13 19:58:24;;;;;;;;;;;19.60;28.20;;;;;;21079008;28;20397;-55
2023/05/13 20:08:28;;;;;;;;;;;19.50;28.40;;;;;;21077552;28;19979;-57
2023/05/13 20:18:28;;;;;;;;;;;19.30;28.80;;;;;;21077125;28;19981;-57
2023/05/13 20:28:29;;;;;;;;;;;19.20;29.40;;;;;;21087512;28;20292;-56
2023/05/13 20:38:29;;;;;;;;;;;19.10;29.50;;;;;;21092325;28;20438;-55
2023/05/13 20:48:31;;;;;;;;;;;19.00;29.80;;;;;;21090613;28;19924;-56
2023/05/13 20:58:32;;;;;;;;;;;18.80;30.00;;;;;;21089679;28;19924;-55
2023/05/13 21:08:35;;;;;;;;;;;18.70;30.50;;;;;;21089609;28;20396;-55
2023/05/13 21:18:36;;;;;;;;;;;18.50;31.10;;;;;;21088088;28;19931;-55
2023/05/13 21:28:37;;;;;;;;;;;18.30;32.30;;;;;;21086274;28;19924;-56
2023/05/13 21:38:37;;;;;;;;;;;18.10;32.80;;;;;;21086306;28;20416;-55
2023/05/13 21:48:38;;;;;;;;;;;18.10;33.60;;;;;;21085331;28;19968;-55
2023/05/13 21:58:39;;;;;;;;;;;17.90;35.30;;;;;;21084947;28;20003;-55
2023/05/13 22:08:39;;;;;;;;;;;18.00;35.90;;;;;;21085338;28;20329;-55
2023/05/13 22:18:40;;;;;;;;;;;17.70;36.10;;;;;;21083383;28;19963;-55
2023/05/13 22:28:41;;;;;;;;;;;17.60;36.40;;;;;;21082853;28;19924;-55
2023/05/13 22:38:41;;;;;;;;;;;17.30;36.70;;;;;;21082157;28;19957;-55
2023/05/13 22:48:42;;;;;;;;;;;17.30;36.80;;;;;;21080835;28;19925;-58
2023/05/13 22:58:42;;;;;;;;;;;17.20;36.60;;;;;;21082490;28;19924;-56
2023/05/13 23:08:43;;;;;;;;;;;17.20;36.40;;;;;;21081709;28;20295;-55
2023/05/13 23:18:44;;;;;;;;;;;17.20;36.50;;;;;;21080947;28;19931;-55
2023/05/13 23:28:44;;;;;;;;;;;17.00;36.80;;;;;;21080835;28;19974;-55
2023/05/13 23:38:45;;;;;;;;;;;16.90;37.20;;;;;;21080334;28;19988;-56
2023/05/13 23:48:46;;;;;;;;;;;16.70;37.50;;;;;;21077827;28;19924;-57
2023/05/13 23:58:46;;;;;;;;;;;16.50;38.10;;;;;;21083224;28;20312;-54
